createdAt,value
2023-11-05T00:00:52.226Z,1.55
2023-11-05T00:03:21.752Z,1.92
2023-11-05T00:05:49.825Z,2.30
2023-11-05T00:08:35.533Z,1.90
2023-11-05T00:11:04.124Z,1.80
2023-11-05T00:13:31.958Z,2.40
2023-11-05T00:16:14.404Z,1.98
2023-11-05T00:18:57.143Z,1.40
2023-11-05T00:27:01.490Z,1.67
2023-11-05T00:29:30.438Z,1.48
2023-11-05T00:32:00.891Z,1.73
2023-11-05T00:34:43.881Z,1.50
2023-11-05T00:37:13.104Z,1.60
2023-11-05T00:39:41.652Z,1.40
2023-11-05T00:42:17.123Z,1.62
2023-11-05T00:44:52.511Z,1.70
2023-11-05T00:47:20.262Z,1.52
2023-11-05T00:49:49.471Z,1.87
2023-11-05T00:52:17.355Z,2.00
2023-11-05T00:54:45.627Z,1.90
2023-11-05T00:57:15.287Z,1.50
2023-11-05T00:59:49.292Z,1.77
2023-11-05T01:02:26.259Z,1.40
2023-11-05T01:04:55.589Z,1.70
2023-11-05T01:07:25.504Z,1.30
2023-11-05T01:09:57.633Z,1.62
2023-11-05T01:12:30.152Z,1.30
2023-11-05T01:14:58.276Z,1.20
2023-11-05T01:17:26.063Z,1.00
2023-11-05T01:19:54.297Z,1.30
2023-11-05T01:22:24.569Z,1.08
2023-11-05T01:24:52.366Z,1.48
2023-11-05T01:27:19.899Z,1.40
2023-11-05T01:29:53.292Z,1.20
2023-11-05T01:32:22.718Z,1.33
2023-11-05T01:34:52.811Z,1.10
2023-11-05T01:37:48.965Z,1.12
2023-11-05T01:40:17.070Z,0.90
2023-11-05T01:42:55.671Z,1.50
2023-11-05T01:45:24.832Z,1.23
2023-11-05T01:47:54.494Z,1.33
2023-11-05T01:50:26.143Z,1.10
2023-11-05T01:52:57.074Z,1.20
2023-11-05T01:55:52.849Z,0.90
2023-11-05T01:58:22.810Z,1.00
2023-11-05T02:00:50.679Z,1.17
2023-11-05T02:03:19.004Z,0.80
2023-11-05T02:05:48.583Z,0.97
2023-11-05T02:08:16.617Z,0.80
2023-11-05T02:10:46.809Z,1.00
2023-11-05T02:13:16.240Z,1.10
2023-11-05T02:15:44.065Z,0.80
2023-11-05T02:18:13.745Z,1.20
2023-11-05T02:20:43.078Z,1.08
2023-11-05T02:23:18.115Z,1.10
2023-11-05T02:25:48.428Z,1.05
2023-11-05T02:28:19.022Z,1.20
2023-11-05T02:30:47.374Z,1.03
2023-11-05T02:33:44.504Z,0.90
2023-11-05T02:36:20.023Z,1.25
2023-11-05T02:38:50.111Z,1.08
2023-11-05T02:41:22.120Z,0.98
2023-11-05T02:43:51.520Z,1.20
2023-11-05T02:46:36.174Z,0.90
2023-11-05T02:49:04.411Z,1.40
2023-11-05T02:51:34.552Z,1.12
2023-11-05T02:54:07.209Z,1.15
2023-11-05T02:56:38.088Z,1.13
2023-11-05T02:59:07.759Z,0.80
2023-11-05T03:01:43.189Z,1.20
2023-11-05T03:04:11.044Z,1.20
2023-11-05T03:06:41.677Z,1.15
2023-11-05T03:09:18.053Z,0.93
2023-11-05T03:11:51.748Z,0.88
2023-11-05T03:14:22.395Z,1.10
2023-11-05T03:16:53.334Z,0.93
2023-11-05T03:19:22.336Z,0.90
2023-11-05T03:21:54.420Z,1.00
2023-11-05T03:24:25.608Z,0.80
2023-11-05T03:26:54.202Z,1.08
2023-11-05T03:29:22.305Z,0.88
2023-11-05T03:31:51.146Z,1.12
2023-11-05T03:34:35.216Z,1.00
2023-11-05T03:37:10.984Z,1.08
2023-11-05T03:39:45.006Z,1.17
2023-11-05T03:42:19.488Z,1.02
2023-11-05T03:44:48.256Z,0.93
2023-11-05T03:47:16.423Z,0.90
2023-11-05T03:49:45.172Z,0.95
2023-11-05T03:52:17.777Z,1.00
2023-11-05T03:54:46.473Z,1.10
2023-11-05T03:57:14.182Z,1.20
2023-11-05T03:59:42.311Z,1.00
2023-11-05T04:02:10.651Z,1.30
2023-11-05T04:04:39.826Z,1.50
2023-11-05T04:07:12.217Z,1.55
2023-11-05T04:09:46.625Z,1.50
2023-11-05T04:12:18.408Z,1.60
2023-11-05T04:14:50.379Z,1.70
2023-11-05T04:17:19.278Z,1.90
2023-11-05T04:19:49.754Z,2.08
2023-11-05T04:22:20.840Z,1.98
2023-11-05T04:24:51.758Z,1.53
2023-11-05T04:27:20.845Z,2.40
2023-11-05T04:29:52.159Z,2.35
2023-11-05T04:32:20.005Z,1.80
2023-11-05T04:34:49.153Z,2.12
2023-11-05T04:37:19.699Z,1.80
2023-11-05T04:39:50.448Z,2.05
2023-11-05T04:42:18.452Z,2.15
2023-11-05T04:44:53.934Z,2.12
2023-11-05T04:47:22.812Z,2.42
2023-11-05T04:49:52.379Z,2.13
2023-11-05T04:52:20.721Z,2.50
2023-11-05T04:54:51.432Z,2.25
2023-11-05T04:57:19.929Z,2.08
2023-11-05T04:59:52.146Z,2.10
2023-11-05T05:02:20.190Z,1.80
2023-11-05T05:04:52.618Z,1.75
2023-11-05T05:07:20.309Z,2.30
2023-11-05T05:09:48.112Z,1.90
2023-11-05T05:12:15.909Z,2.00
2023-11-05T05:14:45.417Z,1.67
2023-11-05T05:17:19.114Z,1.80
2023-11-05T05:19:48.055Z,1.80
2023-11-05T05:22:21.389Z,1.83
2023-11-05T05:25:06.669Z,1.55
2023-11-05T05:27:39.624Z,1.40
2023-11-05T05:30:08.204Z,1.20
2023-11-05T05:32:36.291Z,1.67
2023-11-05T05:35:11.868Z,1.62
2023-11-05T05:37:41.150Z,1.80
2023-11-05T05:40:10.457Z,1.70
2023-11-05T05:42:40.326Z,1.50
2023-11-05T05:45:12.183Z,1.67
2023-11-05T05:47:44.803Z,1.60
2023-11-05T05:50:13.226Z,1.70
2023-11-05T05:52:52.728Z,1.10
2023-11-05T05:55:21.240Z,1.50
2023-11-05T05:57:48.794Z,1.35
2023-11-05T06:00:17.190Z,1.33
2023-11-05T06:02:46.756Z,1.27
2023-11-05T06:05:26.317Z,1.30
2023-11-05T06:08:02.736Z,1.45
2023-11-05T06:10:30.831Z,1.33
2023-11-05T06:13:00.923Z,1.35
2023-11-05T06:15:32.702Z,1.50
2023-11-05T06:18:02.230Z,1.47
2023-11-05T06:20:33.775Z,1.30
2023-11-05T06:23:03.567Z,1.27
2023-11-05T06:25:32.685Z,1.27
2023-11-05T06:28:03.676Z,1.85
2023-11-05T06:30:35.934Z,0.90
2023-11-05T06:33:04.110Z,1.25
2023-11-05T06:35:32.360Z,1.00
2023-11-05T06:38:02.253Z,1.60
2023-11-05T06:40:34.814Z,1.12
2023-11-05T06:43:03.178Z,1.20
2023-11-05T06:45:31.259Z,1.00
2023-11-05T06:48:05.383Z,1.00
2023-11-05T06:50:33.751Z,1.30
2023-11-05T06:53:01.425Z,1.00
2023-11-05T06:55:29.733Z,0.93
2023-11-05T06:57:58.214Z,0.75
2023-11-05T07:00:26.103Z,1.10
2023-11-05T07:02:55.092Z,0.90
2023-11-05T07:05:23.702Z,1.00
2023-11-05T07:07:54.984Z,0.90
2023-11-05T07:10:29.026Z,1.35
2023-11-05T07:13:08.674Z,0.80
2023-11-05T07:15:48.447Z,1.20
2023-11-05T07:18:18.797Z,1.30
2023-11-05T07:20:48.511Z,0.80
2023-11-05T07:23:17.498Z,1.05
2023-11-05T07:25:45.703Z,1.25
2023-11-05T07:28:13.743Z,0.88
2023-11-05T07:30:42.254Z,1.23
2023-11-05T07:33:13.405Z,1.10
2023-11-05T07:35:43.226Z,1.08
2023-11-05T07:38:10.849Z,1.23
2023-11-05T07:40:41.434Z,1.12
2023-11-05T07:43:14.849Z,1.10
2023-11-05T07:45:43.354Z,0.93
2023-11-05T07:48:13.388Z,1.20
2023-11-05T07:50:42.952Z,1.00
2023-11-05T07:53:17.196Z,1.37
2023-11-05T07:55:46.234Z,1.50
2023-11-05T07:58:15.735Z,1.40
2023-11-05T08:00:47.654Z,1.55
2023-11-05T08:03:17.764Z,1.65
2023-11-05T08:05:49.542Z,1.70
2023-11-05T08:08:18.652Z,1.75
2023-11-05T08:10:46.488Z,1.67
2023-11-05T08:13:15.721Z,1.75
2023-11-05T08:15:44.913Z,1.60
2023-11-05T08:18:14.051Z,1.80
2023-11-05T08:20:45.063Z,1.75
2023-11-05T08:23:15.609Z,1.67
2023-11-05T08:25:45.149Z,1.87
2023-11-05T08:28:25.545Z,1.58
2023-11-05T08:30:56.276Z,1.60
2023-11-05T08:33:30.847Z,2.05
2023-11-05T08:36:03.451Z,1.70
2023-11-05T08:38:33.430Z,1.92
2023-11-05T08:41:02.420Z,1.55
2023-11-05T08:43:32.105Z,1.45
2023-11-05T08:46:00.139Z,1.80
2023-11-05T08:48:28.892Z,1.60
2023-11-05T08:50:56.942Z,1.50
2023-11-05T08:53:26.703Z,2.10
2023-11-05T08:55:59.992Z,1.80
2023-11-05T08:58:36.436Z,1.62
2023-11-05T09:01:04.386Z,2.53
2023-11-05T09:03:33.089Z,1.90
2023-11-05T09:06:03.533Z,2.40
2023-11-05T09:08:36.321Z,4.07
2023-11-05T09:11:04.544Z,4.90
2023-11-05T09:13:36.935Z,8.10
2023-11-05T09:16:08.293Z,5.10
2023-11-05T09:18:37.701Z,2.42
2023-11-05T09:21:06.402Z,2.42
2023-11-05T09:23:39.310Z,2.40
2023-11-05T09:26:11.419Z,2.27
2023-11-05T09:28:39.960Z,1.83
2023-11-05T09:31:09.500Z,1.75
2023-11-05T09:33:37.363Z,1.60
2023-11-05T09:38:49.328Z,1.43
2023-11-05T09:41:20.979Z,1.30
2023-11-05T09:43:53.603Z,1.40
2023-11-05T09:46:30.514Z,1.50
2023-11-05T09:48:58.441Z,1.40
2023-11-05T09:51:26.027Z,1.30
2023-11-05T09:53:55.239Z,1.30
2023-11-05T09:56:29.481Z,1.60
2023-11-05T09:58:57.781Z,2.03
2023-11-05T10:01:26.973Z,2.05
2023-11-05T10:03:56.881Z,1.80
2023-11-05T10:06:38.054Z,2.03
2023-11-05T10:09:09.198Z,1.90
2023-11-05T10:11:38.506Z,3.08
2023-11-05T10:14:06.997Z,2.60
2023-11-05T10:16:38.778Z,2.13
2023-11-05T10:19:09.544Z,2.00
2023-11-05T10:21:45.436Z,2.47
2023-11-05T10:24:15.070Z,2.15
2023-11-05T10:26:42.896Z,2.10
2023-11-05T10:29:13.994Z,2.37
2023-11-05T10:31:42.974Z,2.20
2023-11-05T10:34:12.734Z,4.15
2023-11-05T10:36:45.208Z,5.30
2023-11-05T10:39:14.432Z,5.80
2023-11-05T10:41:43.484Z,10.93
2023-11-05T10:44:11.598Z,7.80
2023-11-05T10:46:40.134Z,5.32
2023-11-05T10:49:11.230Z,4.93
2023-11-05T10:51:42.627Z,3.10
2023-11-05T10:54:10.239Z,2.47
2023-11-05T10:56:44.280Z,1.67
2023-11-05T10:59:13.673Z,2.50
2023-11-05T11:01:46.826Z,2.55
2023-11-05T11:04:19.856Z,1.95
2023-11-05T11:06:50.896Z,2.00
2023-11-05T11:09:19.383Z,2.00
2023-11-05T11:11:47.336Z,2.28
2023-11-05T11:14:17.209Z,2.20
2023-11-05T11:16:48.825Z,2.17
2023-11-05T11:19:19.078Z,2.20
2023-11-05T11:22:07.860Z,2.95
2023-11-05T11:24:49.811Z,2.45
2023-11-05T11:27:19.291Z,2.53
2023-11-05T11:29:50.912Z,2.33
2023-11-05T11:32:21.880Z,2.10
2023-11-05T11:34:50.389Z,2.28
2023-11-05T11:37:18.575Z,2.45
2023-11-05T11:39:48.416Z,2.28
2023-11-05T11:42:20.135Z,2.50
2023-11-05T11:44:48.150Z,2.07
2023-11-05T11:47:17.118Z,2.33
2023-11-05T11:49:47.106Z,2.65
2023-11-05T11:52:15.464Z,2.78
2023-11-05T11:54:46.046Z,2.45
2023-11-05T11:57:14.229Z,2.80
2023-11-05T11:59:42.979Z,2.85
2023-11-05T12:02:13.760Z,2.53
2023-11-05T12:04:41.702Z,2.45
2023-11-05T12:07:10.506Z,2.70
2023-11-05T12:09:42.190Z,3.07
2023-11-05T12:12:10.204Z,2.72
2023-11-05T12:14:44.281Z,2.70
2023-11-05T12:17:17.380Z,3.12
2023-11-05T12:19:47.459Z,2.65
2023-11-05T12:22:24.058Z,3.17
2023-11-05T12:24:51.911Z,14.52
2023-11-05T12:27:23.372Z,4.53
2023-11-05T12:29:53.546Z,3.45
2023-11-05T12:32:35.574Z,16.45
2023-11-05T12:35:11.032Z,10.40
2023-11-05T12:37:43.897Z,5.75
2023-11-05T12:40:58.567Z,4.75
2023-11-05T12:43:28.018Z,2.00
2023-11-05T12:45:57.576Z,2.55
2023-11-05T12:48:31.530Z,1.53
2023-11-05T12:51:05.945Z,2.40
2023-11-05T12:53:34.357Z,2.15
2023-11-05T12:56:07.016Z,1.80
2023-11-05T12:58:36.006Z,1.45
2023-11-05T13:06:55.985Z,1.20
2023-11-05T13:09:24.117Z,1.55
2023-11-05T13:11:51.871Z,1.30
2023-11-05T13:14:19.887Z,0.83
2023-11-05T13:16:48.047Z,1.40
2023-11-05T13:19:15.939Z,1.52
2023-11-05T13:21:46.645Z,0.80
2023-11-05T13:24:14.563Z,0.60
2023-11-05T13:26:42.269Z,0.70
2023-11-05T13:29:09.865Z,0.90
2023-11-05T13:31:38.601Z,0.80
2023-11-05T13:34:06.469Z,0.60
2023-11-05T13:36:34.300Z,0.77
2023-11-05T13:39:02.730Z,1.00
2023-11-05T13:41:30.270Z,0.50
2023-11-05T13:43:59.577Z,0.80
2023-11-05T13:46:27.694Z,1.30
2023-11-05T13:48:55.305Z,0.80
2023-11-05T13:51:23.235Z,0.73
2023-11-05T13:53:54.772Z,0.90
2023-11-05T13:56:22.356Z,0.70
2023-11-05T13:58:49.871Z,0.80
2023-11-05T14:01:19.214Z,0.88
2023-11-05T14:03:47.089Z,0.80
2023-11-05T14:06:15.134Z,0.88
2023-11-05T14:08:42.614Z,0.80
2023-11-05T14:11:10.479Z,0.50
2023-11-05T14:13:38.352Z,0.60
2023-11-05T14:16:06.638Z,0.60
2023-11-05T14:18:34.782Z,0.62
2023-11-05T14:24:12.239Z,0.93
2023-11-05T14:26:40.361Z,1.20
2023-11-05T14:29:08.194Z,1.10
2023-11-05T14:31:39.106Z,0.82
2023-11-05T14:34:07.925Z,1.20
2023-11-05T14:36:35.841Z,1.20
2023-11-05T14:39:06.180Z,1.40
2023-11-05T14:41:34.386Z,1.27
2023-11-05T14:44:02.442Z,1.70
2023-11-05T14:46:30.082Z,1.33
2023-11-05T14:48:58.290Z,1.23
2023-11-05T14:51:26.040Z,1.60
2023-11-05T14:53:53.823Z,1.40
2023-11-05T14:56:21.886Z,1.27
2023-11-05T14:58:49.764Z,1.20
2023-11-05T15:01:19.075Z,1.20
2023-11-05T15:03:47.825Z,1.30
2023-11-05T15:06:15.517Z,1.00
2023-11-05T15:08:43.324Z,1.05
2023-11-05T15:11:11.601Z,1.20
2023-11-05T15:13:39.164Z,1.10
2023-11-05T15:16:07.243Z,1.90
2023-11-05T15:18:38.916Z,7.57
2023-11-05T15:21:07.808Z,11.90
2023-11-05T15:23:36.247Z,9.25
2023-11-05T15:26:04.600Z,7.22
2023-11-05T15:28:32.191Z,4.72
2023-11-05T15:31:02.117Z,2.63
2023-11-05T15:33:39.496Z,1.90
2023-11-05T15:36:07.895Z,1.10
2023-11-05T15:38:36.111Z,1.52
2023-11-05T15:41:04.580Z,0.90
2023-11-05T15:43:33.637Z,1.57
2023-11-05T15:46:01.632Z,0.93
2023-11-05T15:48:29.441Z,1.10
2023-11-05T15:50:57.725Z,1.00
2023-11-05T15:53:27.076Z,1.27
2023-11-05T15:55:54.965Z,1.80
2023-11-05T15:58:23.121Z,3.03
2023-11-05T16:00:51.028Z,3.60
2023-11-05T16:03:19.842Z,2.60
2023-11-05T16:05:47.860Z,1.52
2023-11-05T16:08:15.405Z,1.20
2023-11-05T16:10:43.883Z,0.80
2023-11-05T16:13:11.690Z,0.73
2023-11-05T16:15:39.634Z,0.90
2023-11-05T16:18:08.079Z,2.05
2023-11-05T16:20:35.679Z,1.77
2023-11-05T16:23:03.774Z,1.30
2023-11-05T16:25:31.691Z,0.80
2023-11-05T16:27:59.333Z,1.02
2023-11-05T16:30:27.284Z,0.80
2023-11-05T16:32:55.457Z,0.70
2023-11-05T16:35:25.783Z,0.75
2023-11-05T16:37:53.709Z,0.90
2023-11-05T16:40:23.786Z,1.45
2023-11-05T16:42:51.551Z,0.80
2023-11-05T16:45:19.531Z,0.60
2023-11-05T16:47:48.612Z,0.60
2023-11-05T16:50:16.796Z,0.37
2023-11-05T16:52:45.793Z,0.62
2023-11-05T16:55:16.463Z,0.50
2023-11-05T16:57:45.359Z,0.67
2023-11-05T17:00:13.923Z,0.40
2023-11-05T17:02:41.968Z,0.45
2023-11-05T17:05:13.591Z,0.40
2023-11-05T17:07:42.517Z,0.50
2023-11-05T17:10:12.079Z,0.40
2023-11-05T17:12:40.588Z,0.40
2023-11-05T17:15:09.614Z,0.50
2023-11-05T17:17:37.916Z,0.60
2023-11-05T17:20:07.219Z,0.50
2023-11-05T17:22:35.551Z,0.50
2023-11-05T17:25:07.129Z,0.50
2023-11-05T17:27:35.769Z,0.60
2023-11-05T17:30:03.762Z,0.70
2023-11-05T17:32:31.647Z,0.47
2023-11-05T17:34:59.850Z,0.40
2023-11-05T17:37:27.751Z,0.30
2023-11-05T17:39:55.609Z,0.50
2023-11-05T17:42:23.501Z,0.68
2023-11-05T17:44:51.295Z,0.45
2023-11-05T17:47:19.116Z,0.40
2023-11-05T17:49:47.312Z,0.50
2023-11-05T17:52:15.803Z,0.47
2023-11-05T17:54:43.595Z,0.57
2023-11-05T17:57:12.724Z,0.40
2023-11-05T17:59:40.817Z,0.40
2023-11-05T18:02:08.638Z,0.40
2023-11-05T18:04:37.765Z,0.47
2023-11-05T18:07:05.469Z,0.50
2023-11-05T18:09:33.209Z,0.50
2023-11-05T18:12:04.335Z,0.40
2023-11-05T18:14:31.837Z,0.43
2023-11-05T18:16:59.467Z,0.50
2023-11-05T18:19:27.351Z,0.40
2023-11-05T18:21:55.204Z,0.65
2023-11-05T18:24:27.052Z,0.50
2023-11-05T18:26:55.313Z,0.40
2023-11-05T18:29:23.886Z,0.40
2023-11-05T18:31:51.696Z,0.40
2023-11-05T18:34:19.794Z,0.37
2023-11-05T18:36:47.541Z,0.40
2023-11-05T18:39:15.315Z,0.45
2023-11-05T18:41:44.346Z,0.60
2023-11-05T18:44:12.627Z,0.40
2023-11-05T18:46:41.765Z,0.70
2023-11-05T18:49:10.271Z,0.47
2023-11-05T18:51:38.189Z,0.40
2023-11-05T18:54:05.823Z,0.40
2023-11-05T18:56:34.199Z,0.40
2023-11-05T18:59:02.035Z,0.60
2023-11-05T19:01:29.691Z,0.60
2023-11-05T19:03:58.025Z,0.40
2023-11-05T19:06:25.904Z,0.43
2023-11-05T19:08:54.546Z,0.62
2023-11-05T19:11:22.590Z,0.30
2023-11-05T19:13:56.661Z,0.30
2023-11-05T19:16:30.260Z,0.50
2023-11-05T19:19:00.206Z,0.50
2023-11-05T19:21:28.243Z,0.50
2023-11-05T19:23:56.038Z,0.40
2023-11-05T19:26:28.909Z,0.40
2023-11-05T19:28:57.056Z,0.47
2023-11-05T19:31:24.855Z,0.52
2023-11-05T19:33:52.997Z,0.40
2023-11-05T19:36:24.885Z,0.75
2023-11-05T19:38:53.649Z,0.30
2023-11-05T19:41:31.841Z,0.40
2023-11-05T19:44:00.494Z,0.30
2023-11-05T19:46:28.609Z,0.40
2023-11-05T19:48:56.776Z,0.30
2023-11-05T19:51:24.739Z,0.37
2023-11-05T19:53:52.873Z,0.43
2023-11-05T19:56:26.030Z,0.62
2023-11-05T19:58:57.497Z,0.40
2023-11-05T20:01:25.608Z,0.62
2023-11-05T20:03:55.872Z,0.40
2023-11-05T20:06:24.178Z,0.50
2023-11-05T20:08:52.274Z,0.40
2023-11-05T20:11:20.835Z,0.47
2023-11-05T20:13:50.107Z,0.50
2023-11-05T20:16:18.285Z,0.37
2023-11-05T20:18:47.163Z,0.50
2023-11-05T20:21:15.029Z,0.60
2023-11-05T20:23:43.061Z,0.40
2023-11-05T20:26:12.929Z,0.40
2023-11-05T20:28:42.136Z,0.47
2023-11-05T20:31:10.721Z,0.50
2023-11-05T20:33:39.652Z,0.30
2023-11-05T20:36:07.837Z,0.40
2023-11-05T20:38:35.574Z,0.60
2023-11-05T20:41:03.941Z,0.40
2023-11-05T20:43:31.776Z,0.40
2023-11-05T20:46:01.260Z,0.30
2023-11-05T20:48:29.261Z,0.40
2023-11-05T20:50:57.108Z,0.50
2023-11-05T20:53:25.029Z,0.40
2023-11-05T20:55:52.995Z,0.40
2023-11-05T20:58:20.697Z,0.50
2023-11-05T21:00:48.547Z,0.37
2023-11-05T21:03:16.534Z,0.40
2023-11-05T21:05:44.529Z,0.40
2023-11-05T21:08:12.448Z,0.40
2023-11-05T21:10:48.742Z,0.70
2023-11-05T21:13:19.941Z,0.40
2023-11-05T21:15:48.088Z,0.57
2023-11-05T21:18:15.798Z,0.40
2023-11-05T21:20:43.925Z,0.57
2023-11-05T21:23:11.771Z,0.70
2023-11-05T21:25:40.706Z,0.40
2023-11-05T21:28:08.343Z,0.43
2023-11-05T21:30:36.475Z,0.40
2023-11-05T21:33:04.491Z,0.60
2023-11-05T21:35:32.770Z,0.62
2023-11-05T21:38:00.685Z,0.70
2023-11-05T21:40:28.675Z,0.52
2023-11-05T21:42:57.535Z,0.70
2023-11-05T21:45:29.392Z,0.40
2023-11-05T21:47:57.223Z,0.60
2023-11-05T21:50:27.084Z,0.80
2023-11-05T21:52:55.069Z,0.80
2023-11-05T21:55:22.836Z,0.33
2023-11-05T21:57:50.712Z,0.50
2023-11-05T22:00:18.508Z,0.40
2023-11-05T22:02:46.668Z,0.52
2023-11-05T22:05:14.809Z,0.77
2023-11-05T22:07:42.623Z,0.70
2023-11-05T22:10:11.336Z,0.68
2023-11-05T22:12:39.056Z,0.70
2023-11-05T22:15:10.280Z,0.70
2023-11-05T22:17:38.049Z,0.50
2023-11-05T22:20:07.490Z,0.50
2023-11-05T22:22:35.728Z,0.50
2023-11-05T22:25:04.661Z,0.60
2023-11-05T22:27:32.403Z,0.52
2023-11-05T22:30:00.510Z,0.47
2023-11-05T22:32:28.376Z,0.37
2023-11-05T22:34:56.266Z,0.50
2023-11-05T22:37:24.434Z,0.57
2023-11-05T22:39:52.022Z,0.40
2023-11-05T22:42:20.352Z,0.50
2023-11-05T22:44:48.372Z,0.50
2023-11-05T22:47:15.948Z,0.47
2023-11-05T22:49:43.739Z,0.80
2023-11-05T22:52:11.857Z,0.80
2023-11-05T22:54:41.379Z,0.50
2023-11-05T22:57:12.333Z,0.70
2023-11-05T22:59:41.452Z,0.43
2023-11-05T23:02:09.074Z,0.60
2023-11-05T23:04:37.227Z,0.60
2023-11-05T23:07:05.218Z,0.80
2023-11-05T23:09:33.224Z,0.80
2023-11-05T23:12:01.232Z,0.77
2023-11-05T23:14:28.950Z,0.60
2023-11-05T23:16:56.653Z,0.60
2023-11-05T23:19:24.656Z,0.65
2023-11-05T23:21:52.820Z,0.57
2023-11-05T23:24:21.340Z,0.77
2023-11-05T23:26:49.497Z,1.00
2023-11-05T23:29:18.098Z,0.57
2023-11-05T23:31:45.924Z,1.08
2023-11-05T23:34:13.739Z,0.83
2023-11-05T23:36:41.513Z,0.90
2023-11-05T23:39:10.851Z,0.85
2023-11-05T23:41:39.123Z,0.70
2023-11-05T23:44:06.925Z,0.90
2023-11-05T23:46:34.670Z,0.80
2023-11-05T23:49:02.743Z,0.70
2023-11-05T23:51:30.452Z,0.90
2023-11-05T23:53:57.975Z,1.00
2023-11-05T23:56:26.021Z,0.80
2023-11-05T23:58:53.880Z,1.00
